Time;durP1;ratioP1;P1;durP2;ratioP2;P2;SDS_P1;SDS_P2;PMS_P1;PMS_P2;Temp;Humidity;BMP_temperature;BMP_pressure;BME280_temperature;BME280_humidity;BME280_pressure;Samples;Min_cycle;Max_cycle;Signal;HPM_P1;HPM_P2
2021/08/30 00:01:01;;;;;;;22.55;7.08;;;;;;;21.01;63.27;100076.08;1756279;80;20983;-49
2021/08/30 00:03:28;;;;;;;15.95;6.60;;;;;;;21.03;63.17;100077.67;1752330;80;20897;-49
2021/08/30 00:05:56;;;;;;;12.93;6.45;;;;;;;21.04;63.38;100078.49;1750946;80;20891;-48
2021/08/30 00:08:24;;;;;;;18.80;7.40;;;;;;;21.02;62.87;100077.76;1750519;80;20941;-48
2021/08/30 00:10:51;;;;;;;18.32;7.40;;;;;;;21.03;62.74;100076.81;1763985;80;20959;-49
2021/08/30 00:13:19;;;;;;;20.02;6.97;;;;;;;21.04;62.74;100078.03;1765309;80;21018;-50
2021/08/30 00:15:47;;;;;;;12.55;6.83;;;;;;;21.03;62.78;100076.35;1755901;80;21522;-47
2021/08/30 00:18:15;;;;;;;20.20;7.60;;;;;;;21.02;61.73;100078.62;1758223;80;21002;-49
2021/08/30 00:20:41;;;;;;;16.75;7.35;;;;;;;21.06;62.27;100072.66;1765331;80;21136;-49
2021/08/30 00:23:07;;;;;;;12.10;6.92;;;;;;;21.05;62.00;100074.91;1759259;80;20959;-51
2021/08/30 00:25:34;;;;;;;16.52;7.22;;;;;;;21.05;62.12;100065.25;1753667;80;21026;-47
2021/08/30 00:28:01;;;;;;;21.02;7.42;;;;;;;21.05;61.97;100067.02;1759613;80;21014;-51
2021/08/30 00:30:27;;;;;;;17.92;6.78;;;;;;;21.02;62.30;100069.87;1759810;80;21537;-51
2021/08/30 00:32:55;;;;;;;15.93;6.87;;;;;;;20.95;62.31;100074.70;1765291;80;21556;-52
2021/08/30 00:35:22;;;;;;;17.23;7.47;;;;;;;20.92;61.94;100071.83;1770941;80;20970;-48
2021/08/30 00:37:50;;;;;;;14.47;6.85;;;;;;;20.94;62.17;100069.92;1752932;80;20970;-51
2021/08/30 00:40:17;;;;;;;14.25;7.12;;;;;;;20.91;62.33;100072.77;1766815;80;20955;-50
2021/08/30 00:42:45;;;;;;;15.68;7.65;;;;;;;20.88;62.39;100069.50;1779889;80;20995;-49
2021/08/30 00:45:13;;;;;;;19.32;7.30;;;;;;;20.85;62.43;100071.02;1764911;80;21250;-49
2021/08/30 00:47:41;;;;;;;11.22;6.80;;;;;;;20.83;61.94;100068.48;1776379;80;21326;-48
2021/08/30 00:50:10;;;;;;;17.87;7.28;;;;;;;20.84;62.36;100071.52;1760773;80;20962;-48
2021/08/30 00:52:37;;;;;;;14.00;7.33;;;;;;;20.83;62.31;100071.11;1758924;80;21557;-48
2021/08/30 00:55:06;;;;;;;22.55;8.10;;;;;;;20.79;61.86;100067.87;1763991;80;20911;-50
2021/08/30 00:57:33;;;;;;;13.08;6.97;;;;;;;20.79;62.25;100074.45;1766435;80;21944;-50
2021/08/30 00:59:59;;;;;;;16.17;6.70;;;;;;;20.73;62.53;100070.89;1762636;80;20978;-48
2021/08/30 01:02:25;;;;;;;17.80;6.90;;;;;;;20.70;62.62;100068.92;1773752;80;20955;-52
2021/08/30 01:04:52;;;;;;;21.50;8.13;;;;;;;20.66;63.12;100070.91;1779246;80;20971;-47
2021/08/30 01:07:43;;;;;;;20.08;6.97;;;;;;;20.59;63.03;100070.50;1722335;82;20955;-50
2021/08/30 01:10:16;;;;;;;18.25;7.25;;;;;;;20.57;62.94;100064.48;1734635;82;20924;-48
2021/08/30 01:12:59;;;;;;;16.62;8.05;;;;;;;20.55;63.40;100070.80;1720753;82;21008;-51
2021/08/30 01:15:39;;;;;;;18.37;7.72;;;;;;;20.50;63.16;100069.78;1723132;82;20998;-49
2021/08/30 01:18:04;;;;;;;16.30;7.42;;;;;;;20.49;63.52;100068.95;1699772;83;20992;-48
2021/08/30 01:21:03;;;;;;;19.87;7.75;;;;;;;20.46;63.58;100062.59;1734804;82;21018;-52
2021/08/30 01:23:30;;;;;;;19.48;7.35;;;;;;;20.42;63.66;100067.66;1697311;83;21113;-47
2021/08/30 01:26:00;;;;;;;27.58;8.00;;;;;;;20.36;63.94;100074.64;1687037;83;21045;-48
2021/08/30 01:28:35;;;;;;;26.05;8.48;;;;;;;20.35;63.69;100064.61;1694770;83;21291;-50
2021/08/30 01:31:16;;;;;;;18.47;7.47;;;;;;;20.34;63.69;100061.61;1699539;83;21004;-47
2021/08/30 01:33:43;;;;;;;23.30;7.80;;;;;;;20.34;63.67;100062.92;1713813;83;21239;-48
2021/08/30 01:36:09;;;;;;;23.95;7.90;;;;;;;20.33;64.03;100059.08;1733868;82;22268;-49
2021/08/30 01:38:39;;;;;;;23.67;7.78;;;;;;;20.29;64.44;100066.30;1708005;82;21545;-49
2021/08/30 01:41:04;;;;;;;23.50;7.78;;;;;;;20.24;64.25;100066.63;1737865;82;20971;-50
2021/08/30 01:43:31;;;;;;;24.55;7.75;;;;;;;20.23;64.30;100062.77;1736446;82;21011;-50
2021/08/30 01:45:57;;;;;;;21.82;7.70;;;;;;;20.18;64.54;100063.06;1721280;82;20991;-50
2021/08/30 01:48:24;;;;;;;18.10;7.95;;;;;;;20.16;64.72;100062.81;1709977;82;21153;-48
2021/08/30 01:50:51;;;;;;;22.32;7.35;;;;;;;20.10;65.05;100057.02;1748161;82;21007;-50
2021/08/30 01:53:17;;;;;;;20.40;7.97;;;;;;;20.03;64.62;100051.77;1709033;83;21030;-45
2021/08/30 01:55:47;;;;;;;16.32;7.65;;;;;;;20.04;64.55;100056.08;1721992;82;21014;-48
2021/08/30 02:00:47;;;;;;;14.00;7.03;;;;;;;20.04;64.95;100057.39;1740294;82;21166;-49
2021/08/30 02:03:21;;;;;;;20.92;7.83;;;;;;;20.03;64.81;100052.26;1726411;82;21521;-48
2021/08/30 02:06:01;;;;;;;22.35;7.12;;;;;;;20.00;65.08;100051.14;1735575;82;20980;-50
2021/08/30 02:08:30;;;;;;;17.07;6.75;;;;;;;19.96;65.33;100054.42;1728955;82;20995;-47
2021/08/30 02:11:06;;;;;;;20.77;7.33;;;;;;;19.92;65.16;100055.57;1734023;82;20976;-47
2021/08/30 02:13:32;;;;;;;18.90;7.47;;;;;;;19.90;65.26;100053.48;1737153;82;21113;-49
2021/08/30 02:16:01;;;;;;;14.33;6.70;;;;;;;19.88;65.16;100056.68;1710455;82;20983;-47
2021/08/30 02:18:41;;;;;;;19.98;6.97;;;;;;;19.86;66.00;100051.52;1738463;82;20995;-51
2021/08/30 02:21:41;;;;;;;20.55;6.95;;;;;;;19.80;65.86;100057.98;1746988;82;21019;-46
2021/08/30 02:24:33;;;;;;;22.17;6.78;;;;;;;19.78;65.93;100052.48;1714255;82;21636;-49
2021/08/30 02:27:15;;;;;;;21.10;6.92;;;;;;;19.73;65.98;100048.00;1759079;80;21776;-46
2021/08/30 02:29:57;;;;;;;15.63;6.87;;;;;;;19.71;65.57;100044.14;1750209;80;21014;-50
2021/08/30 02:32:23;;;;;;;21.80;7.72;;;;;;;19.72;65.33;100048.45;1750575;80;20935;-47
2021/08/30 02:34:53;;;;;;;17.02;7.08;;;;;;;19.74;64.91;100043.95;1776715;80;20916;-47
2021/08/30 02:37:20;;;;;;;22.17;7.50;;;;;;;19.79;65.11;100051.54;1762802;80;20995;-51
2021/08/30 02:39:47;;;;;;;14.00;7.42;;;;;;;19.79;65.21;100056.80;1746899;80;21245;-49
2021/08/30 02:42:14;;;;;;;14.00;6.67;;;;;;;19.76;65.16;100056.50;1760581;80;22420;-50
2021/08/30 02:44:42;;;;;;;18.23;7.42;;;;;;;19.72;65.47;100056.81;1749302;80;20975;-48
2021/08/30 02:47:10;;;;;;;15.63;6.80;;;;;;;19.69;65.25;100057.84;1754953;80;21051;-49
2021/08/30 02:49:40;;;;;;;18.80;7.00;;;;;;;19.66;65.22;100060.66;1762106;80;21509;-48
2021/08/30 02:52:08;;;;;;;21.05;6.65;;;;;;;19.66;64.94;100061.98;1759110;80;21725;-51
2021/08/30 02:54:34;;;;;;;23.60;6.83;;;;;;;19.66;64.66;100061.98;1748197;80;20959;-51
2021/08/30 02:57:03;;;;;;;19.07;6.45;;;;;;;19.65;65.37;100068.17;1759169;80;20931;-48
2021/08/30 02:59:30;;;;;;;16.40;6.50;;;;;;;19.61;64.92;100068.81;1766894;80;20983;-48
2021/08/30 03:01:58;;;;;;;15.93;7.30;;;;;;;19.61;64.78;100072.75;1770352;80;21485;-50
2021/08/30 03:04:24;;;;;;;14.18;6.65;;;;;;;19.62;64.93;100071.81;1714171;82;21015;-46
2021/08/30 03:06:50;;;;;;;17.75;7.08;;;;;;;19.59;65.22;100072.02;1752429;80;21642;-45
2021/08/30 03:09:17;;;;;;;17.55;7.12;;;;;;;19.56;64.90;100081.39;1733234;80;21490;-49
2021/08/30 03:11:45;;;;;;;24.05;6.42;;;;;;;19.53;64.98;100074.54;1755343;80;22803;-47
2021/08/30 03:14:12;;;;;;;18.15;7.10;;;;;;;19.52;64.94;100085.98;1753941;80;21461;-46
2021/08/30 03:16:39;;;;;;;16.65;6.67;;;;;;;19.52;65.08;100078.10;1749790;80;21050;-48
2021/08/30 03:19:06;;;;;;;15.88;6.72;;;;;;;19.52;65.10;100071.55;1765312;80;20970;-50
2021/08/30 03:21:33;;;;;;;16.32;6.10;;;;;;;19.55;65.21;100083.64;1743005;80;21026;-48
2021/08/30 03:24:00;;;;;;;19.80;6.30;;;;;;;19.56;65.10;100084.47;1757756;80;20966;-47
2021/08/30 03:26:26;;;;;;;15.68;6.80;;;;;;;19.58;64.69;100082.14;1756206;80;20955;-47
2021/08/30 03:28:53;;;;;;;25.32;6.95;;;;;;;19.62;64.61;100080.17;1759631;80;21127;-45
2021/08/30 03:31:19;;;;;;;9.73;6.62;;;;;;;19.66;64.91;100076.41;1760527;80;20931;-52
2021/08/30 03:33:46;;;;;;;18.02;6.97;;;;;;;19.67;64.89;100082.04;1718250;81;21018;-51
2021/08/30 03:36:12;;;;;;;13.35;6.33;;;;;;;19.69;64.72;100078.84;1735040;80;20971;-49
2021/08/30 03:38:38;;;;;;;13.15;5.87;;;;;;;19.71;64.75;100079.59;1768842;80;21002;-49
2021/08/30 03:41:05;;;;;;;16.07;6.35;;;;;;;19.78;64.44;100087.45;1740825;80;21201;-49
2021/08/30 03:43:32;;;;;;;19.90;6.85;;;;;;;19.84;64.33;100081.45;1761972;80;21488;-47
2021/08/30 03:45:58;;;;;;;16.65;6.87;;;;;;;19.88;63.89;100078.52;1753851;80;21046;-49
2021/08/30 03:48:25;;;;;;;20.75;6.10;;;;;;;19.93;63.30;100076.95;1761779;80;21014;-49
2021/08/30 03:50:53;;;;;;;20.92;6.72;;;;;;;19.99;63.58;100080.98;1779052;80;21013;-48
2021/08/30 03:53:20;;;;;;;18.98;6.70;;;;;;;20.02;63.67;100081.60;1775731;80;21129;-50
2021/08/30 03:55:47;;;;;;;18.55;6.97;;;;;;;20.04;63.92;100084.97;1763109;80;21603;-50
2021/08/30 03:58:16;;;;;;;19.45;6.08;;;;;;;20.08;63.08;100089.11;1759521;80;20939;-48
2021/08/30 04:00:43;;;;;;;14.07;6.35;;;;;;;20.15;63.33;100088.71;1761198;80;20967;-47
2021/08/30 04:03:11;;;;;;;18.27;6.90;;;;;;;20.20;63.59;100084.00;1763797;80;21157;-48
2021/08/30 04:05:40;;;;;;;20.80;6.60;;;;;;;20.25;62.78;100088.48;1762358;80;21281;-49
2021/08/30 04:08:10;;;;;;;13.55;6.12;;;;;;;20.35;63.31;100088.72;1769731;80;21502;-48
2021/08/30 04:10:37;;;;;;;18.82;6.50;;;;;;;20.47;62.72;100083.12;1753691;80;21520;-49
2021/08/30 04:13:05;;;;;;;17.05;6.47;;;;;;;20.61;63.08;100089.64;1759589;80;20959;-50
2021/08/30 04:15:33;;;;;;;16.17;6.42;;;;;;;20.76;61.96;100085.60;1771523;80;20919;-50
2021/08/30 04:17:59;;;;;;;14.10;6.15;;;;;;;20.95;62.04;100093.11;1759276;80;21271;-51
2021/08/30 04:20:26;;;;;;;14.40;6.45;;;;;;;21.11;61.57;100094.25;1779718;80;21235;-48
2021/08/30 04:22:52;;;;;;;14.28;6.42;;;;;;;21.25;60.55;100094.13;1774055;80;21066;-47
2021/08/30 04:25:19;;;;;;;12.25;6.50;;;;;;;21.41;60.72;100093.06;1747974;80;20919;-49
2021/08/30 04:27:45;;;;;;;17.02;7.30;;;;;;;21.58;59.17;100094.97;1749192;80;20978;-48
2021/08/30 04:30:12;;;;;;;16.32;6.20;;;;;;;21.74;59.14;100091.66;1756092;80;21130;-49
2021/08/30 04:32:40;;;;;;;15.03;6.35;;;;;;;21.91;58.81;100094.89;1768462;80;21452;-48
2021/08/30 04:35:08;;;;;;;26.30;6.90;;;;;;;22.04;57.67;100095.66;1766682;80;20958;-47
2021/08/30 04:37:34;;;;;;;16.57;6.50;;;;;;;22.17;57.39;100097.42;1752301;80;21003;-52
2021/08/30 04:40:02;;;;;;;13.25;6.15;;;;;;;22.29;57.49;100095.69;1767823;80;21489;-52
2021/08/30 04:42:28;;;;;;;20.32;6.12;;;;;;;22.44;57.74;100100.30;1750148;80;21107;-51
2021/08/30 04:44:56;;;;;;;20.85;7.08;;;;;;;22.58;57.70;100088.75;1759079;80;21077;-52
2021/08/30 04:47:22;;;;;;;18.20;6.33;;;;;;;22.74;57.12;100102.48;1749826;80;21513;-51
2021/08/30 04:49:49;;;;;;;16.77;5.97;;;;;;;22.88;56.39;100098.79;1757870;80;21437;-48
2021/08/30 04:52:15;;;;;;;11.15;6.03;;;;;;;23.01;56.28;100096.52;1720818;82;21633;-49
2021/08/30 04:54:42;;;;;;;13.50;6.42;;;;;;;23.08;55.46;100095.08;1696325;83;21742;-51
2021/08/30 04:57:08;;;;;;;16.80;6.87;;;;;;;23.16;54.91;100094.49;1736241;82;21025;-46
2021/08/30 04:59:35;;;;;;;17.32;5.97;;;;;;;23.21;55.68;100093.19;1692349;83;21019;-49
2021/08/30 05:02:01;;;;;;;16.70;6.67;;;;;;;23.24;55.50;100089.45;1764573;80;21043;-48
2021/08/30 05:04:28;;;;;;;19.52;7.08;;;;;;;23.33;55.08;100091.42;1736825;80;21070;-48
2021/08/30 05:06:56;;;;;;;17.75;6.85;;;;;;;23.43;55.41;100092.86;1736756;80;22188;-49
2021/08/30 05:09:23;;;;;;;14.98;6.85;;;;;;;23.48;54.21;100085.41;1755557;80;20998;-48
2021/08/30 05:11:49;;;;;;;17.57;6.45;;;;;;;23.46;53.68;100086.02;1739655;80;20947;-50
2021/08/30 05:14:16;;;;;;;20.92;6.65;;;;;;;23.39;54.46;100086.15;1776440;80;21018;-47
2021/08/30 05:16:43;;;;;;;17.92;6.60;;;;;;;23.34;54.49;100083.86;1756901;80;21002;-49
2021/08/30 05:19:10;;;;;;;16.67;6.83;;;;;;;23.33;54.13;100081.33;1754509;80;21122;-49
2021/08/30 05:21:37;;;;;;;21.48;7.17;;;;;;;23.27;54.31;100080.03;1776026;80;20924;-47
2021/08/30 05:24:07;;;;;;;18.85;6.55;;;;;;;23.21;54.89;100079.98;1770267;80;20896;-46
2021/08/30 05:26:35;;;;;;;21.45;6.83;;;;;;;23.22;55.17;100086.09;1760209;80;20986;-49
2021/08/30 05:29:03;;;;;;;22.07;6.45;;;;;;;23.25;54.60;100077.98;1773296;80;21197;-49
2021/08/30 05:31:29;;;;;;;16.05;6.00;;;;;;;23.27;55.18;100081.81;1760306;80;21100;-50
2021/08/30 05:33:58;;;;;;;17.35;6.83;;;;;;;23.29;54.98;100087.34;1756530;80;21544;-45
2021/08/30 05:36:26;;;;;;;21.97;6.30;;;;;;;23.34;55.05;100088.28;1763388;80;20924;-47
2021/08/30 05:38:53;;;;;;;20.55;7.45;;;;;;;23.37;55.49;100086.25;1756194;80;21002;-47
2021/08/30 05:41:19;;;;;;;25.12;7.17;;;;;;;23.41;55.88;100083.38;1772078;80;20990;-50
2021/08/30 05:43:46;;;;;;;16.05;6.85;;;;;;;23.41;55.50;100078.95;1754925;80;21802;-51
2021/08/30 05:46:15;;;;;;;20.55;7.55;;;;;;;23.42;56.02;100079.30;1762545;80;20979;-52
2021/08/30 05:48:40;;;;;;;17.85;6.62;;;;;;;23.41;56.05;100080.73;1749851;80;21027;-47
2021/08/30 05:51:07;;;;;;;19.32;7.50;;;;;;;23.35;55.86;100083.36;1756968;80;20971;-47
2021/08/30 05:53:34;;;;;;;19.60;7.08;;;;;;;23.32;55.96;100084.93;1753363;80;20982;-49
2021/08/30 05:56:00;;;;;;;18.42;7.22;;;;;;;23.31;56.14;100088.53;1715677;82;22212;-47
2021/08/30 05:58:26;;;;;;;18.10;7.53;;;;;;;23.32;56.34;100087.10;1718122;82;21604;-49
2021/08/30 06:00:53;;;;;;;23.73;7.00;;;;;;;23.36;55.85;100083.25;1722582;82;21035;-47
2021/08/30 06:03:19;;;;;;;19.35;7.62;;;;;;;23.40;55.89;100069.34;1731067;82;21722;-49
2021/08/30 06:05:46;;;;;;;26.00;7.35;;;;;;;23.41;55.34;100078.09;1719732;82;21482;-47
2021/08/30 06:08:13;;;;;;;21.17;7.28;;;;;;;23.48;56.08;100083.23;1700060;83;21915;-51
2021/08/30 06:10:40;;;;;;;20.50;7.70;;;;;;;23.54;55.66;100085.41;1677094;83;21486;-49
2021/08/30 06:13:07;;;;;;;21.82;7.35;;;;;;;23.65;55.39;100076.64;1768188;80;20888;-47
2021/08/30 06:15:33;;;;;;;19.23;7.78;;;;;;;23.74;55.94;100078.54;1707245;80;21519;-48
2021/08/30 06:17:59;;;;;;;20.40;6.80;;;;;;;23.78;55.88;100081.78;1751272;80;22501;-52
2021/08/30 06:20:26;;;;;;;21.48;7.37;;;;;;;23.80;56.72;100088.61;1760492;80;21808;-47
2021/08/30 06:22:52;;;;;;;19.95;7.30;;;;;;;23.85;56.08;100081.64;1776841;80;22205;-46
2021/08/30 06:25:19;;;;;;;26.40;7.60;;;;;;;23.91;56.37;100082.95;1760055;80;21529;-51
2021/08/30 06:27:45;;;;;;;16.55;7.80;;;;;;;23.96;55.84;100076.31;1766398;80;22014;-49
2021/08/30 06:30:12;;;;;;;24.87;7.83;;;;;;;23.98;56.02;100074.87;1759718;80;21054;-50
2021/08/30 06:32:39;;;;;;;25.37;8.15;;;;;;;23.94;55.79;100074.28;1762405;80;21129;-48
2021/08/30 06:35:08;;;;;;;24.27;7.92;;;;;;;23.99;56.08;100091.56;1760487;80;20951;-47
2021/08/30 06:37:34;;;;;;;25.82;7.08;;;;;;;24.11;56.64;100090.61;1757302;80;21006;-47
2021/08/30 06:40:00;;;;;;;17.07;7.58;;;;;;;24.25;55.81;100086.84;1770506;80;21010;-49
2021/08/30 06:42:27;;;;;;;17.75;7.03;;;;;;;24.35;55.33;100089.06;1754008;80;20986;-48
2021/08/30 06:44:53;;;;;;;19.75;6.83;;;;;;;24.47;56.17;100081.92;1780511;80;21017;-47
2021/08/30 06:47:19;;;;;;;23.62;7.85;;;;;;;24.60;55.79;100077.77;1769569;80;20936;-46
2021/08/30 06:49:46;;;;;;;16.20;8.00;;;;;;;24.75;55.28;100077.48;1755849;80;21485;-51
2021/08/30 06:52:12;;;;;;;24.30;7.78;;;;;;;24.89;54.49;100084.25;1770837;80;20943;-48
2021/08/30 06:54:39;;;;;;;16.00;7.25;;;;;;;24.96;54.54;100088.05;1739602;82;21086;-48
2021/08/30 06:57:05;;;;;;;20.97;7.30;;;;;;;24.99;54.94;100084.31;1710527;83;21053;-51
2021/08/30 06:59:32;;;;;;;23.22;7.70;;;;;;;25.00;55.34;100088.13;1724858;83;21055;-51
2021/08/30 07:01:59;;;;;;;15.93;7.35;;;;;;;25.01;53.86;100085.02;1708125;82;21647;-51
2021/08/30 07:04:25;;;;;;;20.95;7.42;;;;;;;25.00;54.14;100080.19;1700703;83;21497;-47
2021/08/30 07:06:52;;;;;;;23.92;7.20;;;;;;;24.97;54.38;100079.13;1701908;83;20948;-48
2021/08/30 07:09:19;;;;;;;20.52;7.70;;;;;;;24.98;55.09;100079.98;1684140;83;21026;-51
2021/08/30 07:11:46;;;;;;;18.75;7.60;;;;;;;24.98;54.70;100083.95;1701342;83;21565;-50
2021/08/30 07:14:13;;;;;;;24.47;7.90;;;;;;;24.95;55.06;100082.40;1688413;84;20936;-50
2021/08/30 07:16:41;;;;;;;17.27;7.05;;;;;;;24.94;55.76;100080.25;1708442;83;20952;-49
2021/08/30 07:19:07;;;;;;;32.35;8.68;;;;;;;24.96;55.85;100088.05;1725751;83;20949;-47
2021/08/30 07:21:35;;;;;;;22.98;8.70;;;;;;;25.00;56.28;100084.66;1727991;82;20952;-48
2021/08/30 07:24:02;;;;;;;23.62;7.92;;;;;;;25.03;55.37;100094.98;1710476;83;21050;-49
2021/08/30 07:26:29;;;;;;;29.52;8.48;;;;;;;25.05;56.32;100099.66;1749856;80;20935;-49
2021/08/30 07:28:56;;;;;;;22.00;7.87;;;;;;;25.04;56.45;100102.81;1764546;80;21461;-50
2021/08/30 07:31:22;;;;;;;29.70;7.80;;;;;;;25.06;56.49;100106.62;1757142;80;20876;-50
2021/08/30 07:33:49;;;;;;;25.92;7.83;;;;;;;25.16;57.84;100110.19;1753710;80;21103;-50
2021/08/30 07:36:15;;;;;;;19.62;7.75;;;;;;;25.27;57.02;100103.11;1722915;82;20998;-50
2021/08/30 07:38:42;;;;;;;20.37;7.80;;;;;;;25.38;57.01;100098.56;1742007;80;21951;-48
2021/08/30 07:41:09;;;;;;;14.03;7.78;;;;;;;25.49;55.92;100092.84;1775738;80;21022;-47
2021/08/30 07:43:36;;;;;;;27.02;8.03;;;;;;;25.60;55.96;100090.10;1765804;80;21061;-49
2021/08/30 07:46:02;;;;;;;19.90;8.30;;;;;;;25.71;55.50;100089.62;1758803;80;21121;-51
2021/08/30 07:48:30;;;;;;;19.27;7.90;;;;;;;25.85;54.75;100083.09;1751693;80;20995;-51
2021/08/30 07:50:57;;;;;;;31.70;8.45;;;;;;;25.98;54.93;100082.36;1734922;82;20947;-50
2021/08/30 07:53:28;;;;;;;17.75;7.55;;;;;;;26.22;54.42;100082.48;1748800;80;21023;-50
2021/08/30 07:55:54;;;;;;;18.05;8.08;;;;;;;26.58;52.67;100078.75;1758345;80;20920;-49
2021/08/30 07:58:22;;;;;;;23.38;8.23;;;;;;;26.85;51.40;100079.02;1761591;80;21484;-48
2021/08/30 08:00:49;;;;;;;22.82;8.88;;;;;;;27.01;52.15;100082.39;1736344;80;21521;-52
2021/08/30 08:03:16;;;;;;;17.10;8.23;;;;;;;27.15;51.51;100084.56;1721370;82;21006;-51
2021/08/30 08:05:42;;;;;;;18.40;7.62;;;;;;;27.33;52.19;100083.33;1754570;80;21074;-48
2021/08/30 08:08:09;;;;;;;27.02;8.40;;;;;;;27.49;51.71;100084.02;1768677;80;20958;-51
2021/08/30 08:10:35;;;;;;;20.10;7.87;;;;;;;27.57;51.11;100089.95;1736803;80;21202;-47
2021/08/30 08:13:06;;;;;;;20.45;8.48;;;;;;;27.59;50.51;100088.47;1772741;80;20924;-49
2021/08/30 08:15:34;;;;;;;27.48;8.73;;;;;;;27.60;51.01;100087.00;1776859;80;20955;-47
2021/08/30 08:18:02;;;;;;;23.47;8.33;;;;;;;27.54;51.26;100082.28;1760842;80;21025;-52
2021/08/30 08:20:31;;;;;;;25.10;8.38;;;;;;;27.59;51.13;100084.00;1726575;82;21046;-51
2021/08/30 08:23:02;;;;;;;19.77;8.45;;;;;;;27.65;50.70;100081.22;1703447;83;21180;-47
2021/08/30 08:25:29;;;;;;;25.02;8.35;;;;;;;27.64;51.47;100082.20;1762008;80;20943;-51
2021/08/30 08:27:57;;;;;;;27.35;9.05;;;;;;;27.61;51.45;100081.17;1755929;80;21233;-51
2021/08/30 08:30:24;;;;;;;19.57;8.48;;;;;;;27.62;52.72;100074.87;1748269;80;20990;-50
2021/08/30 08:32:51;;;;;;;27.93;8.43;;;;;;;27.76;52.16;100073.53;1762071;80;20948;-47
2021/08/30 08:35:18;;;;;;;21.40;7.95;;;;;;;27.89;51.82;100075.82;1759179;80;21089;-50
2021/08/30 08:40:33;;;;;;;28.75;8.65;;;;;;;28.19;50.88;100068.52;1787537;78;23263;-52
2021/08/30 08:42:59;;;;;;;25.92;8.03;;;;;;;28.25;51.40;100067.89;1750542;80;21693;-52
2021/08/30 08:45:27;;;;;;;20.80;8.48;;;;;;;28.39;50.92;100060.67;1757831;80;21167;-49
2021/08/30 08:47:54;;;;;;;23.90;8.85;;;;;;;28.62;51.21;100067.34;1760745;80;20983;-51
2021/08/30 08:50:22;;;;;;;29.95;9.35;;;;;;;28.77;50.80;100064.94;1754140;80;21542;-50
2021/08/30 08:52:49;;;;;;;34.18;9.15;;;;;;;28.94;50.94;100067.23;1735010;80;21018;-49
2021/08/30 08:55:16;;;;;;;31.65;9.55;;;;;;;29.09;50.07;100064.80;1732907;81;20968;-52
2021/08/30 08:57:44;;;;;;;27.48;8.83;;;;;;;29.12;49.48;100064.48;1732082;82;20920;-51
2021/08/30 09:00:12;;;;;;;20.95;8.28;;;;;;;29.10;48.14;100062.00;1701036;83;20947;-47
2021/08/30 09:02:38;;;;;;;19.40;7.97;;;;;;;29.02;49.65;100069.92;1695770;84;20998;-49
2021/08/30 09:05:07;;;;;;;24.45;8.58;;;;;;;29.03;48.77;100060.13;1681823;84;21672;-51
2021/08/30 09:07:43;;;;;;;23.12;8.10;;;;;;;29.08;48.01;100058.66;1654063;84;21506;-50
2021/08/30 09:10:16;;;;;;;26.97;8.13;;;;;;;29.04;48.44;100062.61;1682916;84;21175;-47
2021/08/30 09:12:41;;;;;;;21.48;7.85;;;;;;;29.01;48.18;100060.27;1676697;84;21051;-49
2021/08/30 09:15:14;;;;;;;14.05;7.35;;;;;;;29.05;48.84;100060.80;1678170;84;21592;-51
2021/08/30 09:17:51;;;;;;;19.35;8.40;;;;;;;29.10;47.78;100069.98;1686073;83;21388;-48
2021/08/30 09:20:20;;;;;;;21.12;7.90;;;;;;;28.96;48.62;100070.09;1698273;83;21102;-48
2021/08/30 09:22:46;;;;;;;19.37;7.80;;;;;;;28.84;48.33;100067.34;1694132;83;21564;-48
2021/08/30 09:25:13;;;;;;;31.37;8.20;;;;;;;28.78;48.85;100061.28;1690927;84;21018;-51
2021/08/30 09:27:44;;;;;;;18.40;7.70;;;;;;;28.90;48.43;100064.03;1663307;85;21038;-47
2021/08/30 09:30:12;;;;;;;24.80;7.62;;;;;;;29.22;48.23;100059.89;1700218;84;21532;-52
2021/08/30 09:32:47;;;;;;;17.50;7.42;;;;;;;29.72;48.20;100060.56;1689501;84;20998;-46
2021/08/30 09:35:15;;;;;;;16.70;6.92;;;;;;;30.22;47.34;100055.64;1686314;84;21107;-50
2021/08/30 09:37:44;;;;;;;22.32;7.80;;;;;;;30.67;45.61;100064.13;1687262;84;21030;-50
2021/08/30 09:40:15;;;;;;;25.20;7.42;;;;;;;30.80;45.59;100063.61;1674961;84;21082;-50
2021/08/30 09:42:51;;;;;;;14.23;6.50;;;;;;;30.91;45.46;100056.25;1666443;86;21015;-51
2021/08/30 09:45:24;;;;;;;29.00;8.55;;;;;;;30.97;44.67;100059.56;1692225;83;20987;-49
2021/08/30 09:48:00;;;;;;;30.82;7.53;;;;;;;30.88;43.54;100055.27;1654650;85;21041;-49
2021/08/30 09:50:32;;;;;;;20.85;7.50;;;;;;;30.59;43.80;100049.95;1730995;82;20980;-46
2021/08/30 09:52:59;;;;;;;27.50;8.45;;;;;;;30.32;43.92;100056.00;1722775;82;21023;-49
2021/08/30 09:55:26;;;;;;;26.00;7.28;;;;;;;30.20;44.35;100051.49;1733572;82;20976;-51
2021/08/30 09:57:53;;;;;;;25.70;7.58;;;;;;;30.15;44.95;100054.66;1716578;81;21031;-47
2021/08/30 10:00:21;;;;;;;19.20;8.00;;;;;;;30.13;45.10;100050.47;1725118;82;21047;-48
2021/08/30 10:02:53;;;;;;;25.52;7.80;;;;;;;30.18;45.05;100052.13;1718263;82;20936;-50
2021/08/30 10:05:21;;;;;;;18.05;7.95;;;;;;;30.45;44.45;100051.48;1707961;82;20992;-48
2021/08/30 10:07:47;;;;;;;21.50;7.20;;;;;;;30.85;43.46;100049.75;1694653;83;21525;-49
2021/08/30 10:10:15;;;;;;;31.02;7.80;;;;;;;31.09;43.56;100050.67;1707503;82;20964;-48
2021/08/30 10:12:44;;;;;;;33.78;7.50;;;;;;;31.16;43.43;100049.48;1705687;82;20964;-51
2021/08/30 10:15:12;;;;;;;25.57;7.97;;;;;;;31.31;43.48;100049.62;1705761;82;21020;-47
2021/08/30 10:17:46;;;;;;;26.12;7.90;;;;;;;31.65;43.36;100048.42;1689971;83;21035;-47
2021/08/30 10:20:19;;;;;;;25.80;8.10;;;;;;;32.07;41.88;100042.30;1705883;82;20953;-51
2021/08/30 10:23:07;;;;;;;26.85;7.53;;;;;;;32.43;41.22;100040.84;1705470;82;22235;-46
2021/08/30 10:25:39;;;;;;;24.00;7.65;;;;;;;32.72;40.83;100035.22;1711447;82;21698;-50
2021/08/30 10:28:11;;;;;;;25.70;8.15;;;;;;;33.02;40.79;100040.60;1720862;81;21008;-49
2021/08/30 10:30:43;;;;;;;25.57;7.72;;;;;;;33.31;38.96;100049.61;1711318;82;21076;-49
2021/08/30 10:33:09;;;;;;;34.18;8.35;;;;;;;33.48;37.54;100043.54;1729292;82;20941;-48
2021/08/30 10:35:38;;;;;;;22.50;7.60;;;;;;;33.53;37.85;100041.96;1726972;82;20913;-49
2021/08/30 10:38:07;;;;;;;27.93;7.40;;;;;;;33.63;36.54;100039.47;1718731;82;21103;-48
2021/08/30 10:40:36;;;;;;;29.40;8.50;;;;;;;33.80;36.32;100038.21;1672903;81;21296;-49
2021/08/30 10:43:14;;;;;;;32.25;8.20;;;;;;;33.86;35.61;100035.77;1750033;81;20912;-50
2021/08/30 10:46:03;;;;;;;36.50;8.05;;;;;;;33.92;36.10;100039.87;1751757;81;20963;-49
2021/08/30 10:48:35;;;;;;;21.37;7.42;;;;;;;33.91;35.89;100038.70;1725477;81;21027;-52
2021/08/30 10:51:16;;;;;;;30.05;8.08;;;;;;;33.98;36.24;100040.99;1726673;81;21129;-51
2021/08/30 10:53:44;;;;;;;31.48;7.05;;;;;;;34.06;35.79;100037.32;1724821;81;21015;-50
2021/08/30 10:56:11;;;;;;;41.00;8.08;;;;;;;33.93;34.51;100038.84;1712467;81;21026;-50
2021/08/30 10:58:41;;;;;;;32.17;7.65;;;;;;;33.75;35.37;100038.45;1753039;81;21046;-49
2021/08/30 11:01:13;;;;;;;30.32;8.30;;;;;;;33.40;35.94;100037.75;1691729;83;21014;-49
2021/08/30 11:03:41;;;;;;;28.05;7.42;;;;;;;33.22;37.03;100030.97;1712438;83;21706;-51
2021/08/30 11:06:12;;;;;;;32.53;8.95;;;;;;;33.12;36.69;100025.05;1748895;81;20943;-49
2021/08/30 11:08:42;;;;;;;33.70;7.97;;;;;;;32.93;37.29;100023.27;1750989;81;21088;-49
2021/08/30 11:11:12;;;;;;;27.37;7.83;;;;;;;32.81;37.83;100020.71;1740652;81;20990;-49
2021/08/30 11:13:40;;;;;;;27.42;7.85;;;;;;;32.89;39.82;100027.33;1723067;81;21658;-48
2021/08/30 11:16:20;;;;;;;30.75;8.43;;;;;;;32.98;37.65;100024.58;1733919;81;21091;-48
2021/08/30 11:19:02;;;;;;;29.75;7.92;;;;;;;32.96;38.88;100018.86;1733790;81;20936;-51
2021/08/30 11:21:51;;;;;;;32.73;7.87;;;;;;;32.73;36.32;100014.94;1750375;81;20976;-51
2021/08/30 11:24:27;;;;;;;30.72;8.23;;;;;;;32.49;39.38;100013.36;1702528;83;20971;-48
2021/08/30 11:26:57;;;;;;;39.48;8.08;;;;;;;32.31;39.58;100011.83;1736511;81;21018;-51
2021/08/30 11:29:23;;;;;;;30.40;8.05;;;;;;;32.07;39.83;100016.38;1755687;81;21127;-53